Flight Track Log - Related Links

Times and Time Zones

All times are in EDT time to prevent confusion due to time zone crossing. See the N12SN flight status page for this flight to view local times or setup timezone preferences in your user account.

Time Position Orientation Groundspeed Altitude Reporting Facility
EDT Latitude Longitude Course Direction KTS MPH feet Rate Location/Type
Sun 10:44:11 AM 42.9578 -83.6244 62° Northeast 149 171 3,300  Level Cleveland Center
Sun 10:45:00 AM 42.9653 -83.5794 77° East 148 170 4,100 879 Climbing Cleveland Center
Sun 10:46:07 AM 42.9708 -83.5228 82° East 143 165 5,000 400 Climbing Cleveland Center
Sun 10:47:15 AM 42.9536 -83.4597 110° East 159 183 5,000  Level Cleveland Center
Sun 10:48:00 AM 42.7607 -83.4432 100° East  Level Estimated
Sun 10:48:04 AM 42.9403 -83.4108 110° East 158 182 5,000  Level Cleveland Center
Sun 10:49:00 AM 42.7845 -83.3832 62° Northeast  Level FlightAware Approximate
Sun 10:49:11 AM 42.9208 -83.3533 115° Southeast 154 177 5,000  Level Cleveland Center
Sun 10:50:12 AM 42.8883 -83.3178 141° Southeast 151 174 5,000  Level Cleveland Center
Sun 10:51:07 AM 42.8581 -83.2825 139° Southeast 151 174 5,000  Level Cleveland Center
Sun 10:52:14 AM 42.8214 -83.2411 140° Southeast 150 173 5,000  Level Cleveland Center
Sun 10:53:15 AM 42.7911 -83.2003 135° Southeast 152 175 5,000  Level Cleveland Center
Sun 10:54:10 AM 42.7625 -83.1681 140° Southeast 153 176 5,000  Level Cleveland Center
Sun 10:55:11 AM 42.7300 -83.1272 137° Southeast 153 176 5,000  Level Cleveland Center
Sun 10:56:06 AM 42.6997 -83.0919 139° Southeast 152 175 5,000  Level Cleveland Center
Sun 10:57:20 AM 42.6611 -83.0453 138° Southeast 154 177 5,000  Level Cleveland Center
Sun 10:57:36 AM 42.6508 -83.0336 140° Southeast 154 177 5,000  Level Cleveland Center
Sun 10:58:14 AM 42.6306 -83.0072 136° Southeast 155 178 5,000  Level Cleveland Center
Sun 10:58:36 AM 42.6203 -82.9956 140° Southeast 154 177 5,000  Level Cleveland Center
Sun 10:59:15 AM 42.6000 -82.9694 137° Southeast 153 176 5,000  Level Cleveland Center
Sun 10:59:36 AM 42.5858 -82.9547 143° Southeast 154 177 5,000  Level Cleveland Center
Sun 11:00:16 AM 42.5656 -82.9286 137° Southeast 157 181 5,000  Level Cleveland Center
Sun 11:00:36 AM 42.5553 -82.9169 140° Southeast 154 177 5,000  Level Cleveland Center
Sun 11:01:36 AM 42.5228 -82.8764 137° Southeast 164 189 5,000  Level Cleveland Center
Sun 11:02:36 AM 42.4883 -82.8331 137° Southeast 164 189 5,000  Level Cleveland Center
Sun 11:03:36 AM 42.4556 -82.7953 140° Southeast 164 189 5,000  Level Cleveland Center
Sun 11:04:36 AM 42.4208 -82.7544 139° Southeast 164 189 5,000  Level Cleveland Center
Sun 11:05:36 AM 42.3861 -82.7142 139° Southeast 164 189 5,000  Level Cleveland Center
Sun 11:06:36 AM 42.3536 -82.6736 137° Southeast 159 183 5,000  Level Cleveland Center
Sun 11:07:36 AM 42.3211 -82.6331 137° Southeast 159 183 5,000  Level Cleveland Center
Sun 11:08:36 AM 42.2864 -82.5928 139° Southeast 159 183 5,000  Level Cleveland Center
Sun 11:09:36 AM 42.2517 -82.5494 137° Southeast 159 183 5,000  Level Cleveland Center
Sun 11:10:36 AM 42.2167 -82.5119 142° Southeast 159 183 5,000  Level Cleveland Center
Sun 11:11:36 AM 42.1819 -82.4689 137° Southeast 159 183 5,000  Level Cleveland Center
Sun 11:12:36 AM 42.1494 -82.4258 136° Southeast 159 183 5,000  Level Cleveland Center
Sun 11:13:36 AM 42.1167 -82.3886 140° Southeast 159 183 5,000  Level Cleveland Center
Sun 11:14:36 AM 42.0819 -82.3486 139° Southeast 159 183 5,000  Level Cleveland Center
Sun 11:15:36 AM 42.0469 -82.3083 139° Southeast 159 183 5,000  Level Cleveland Center
Sun 11:15:53 AM 42.0389 -82.2997 142° Southeast 163 188 5,000  Level Cleveland Center
Sun 11:16:36 AM 42.0144 -82.2656 134° Southeast 159 183 5,000  Level Cleveland Center
Sun 11:17:36 AM 41.9794 -82.2283 142° Southeast 159 183 5,000  Level Cleveland Center
Sun 11:18:36 AM 41.9508 -82.1858 132° Southeast 159 183 5,000  Level Cleveland Center
Sun 11:18:55 AM 41.9342 -82.1797 165° South 162 186 5,000  Level Cleveland Center
Sun 11:19:36 AM 41.9117 -82.1514 137° Southeast 159 183 5,000  Level Cleveland Center
Sun 11:19:56 AM 41.9014 -82.1342 129° Southeast 160 184 5,000  Level Cleveland Center
Sun 11:20:36 AM 41.8853 -82.1117 134° Southeast 164 189 5,000  Level Cleveland Center
Sun 11:20:56 AM 41.8708 -82.0944 138° Southeast 159 183 5,000 -300 Level Cleveland Center
Sun 11:21:36 AM 41.8522 -82.0689 134° Southeast 159 183 4,700 -492 Descending Cleveland Center
Sun 11:21:57 AM 41.8381 -82.0492 134° Southeast 162 186 4,500 -500 Descending Cleveland Center
Sun 11:22:36 AM 41.8194 -82.0236 134° Southeast 159 183 4,200 -492 Descending Cleveland Center
Sun 11:22:58 AM 41.8050 -82.0122 150° Southeast 161 185 4,000 -500 Descending Cleveland Center
Sun 11:23:36 AM 41.7867 -81.9839 131° Southeast 159 183 3,700 -500 Descending Cleveland Center
Sun 11:23:58 AM 41.7744 -81.9725 145° Southeast 155 178 3,500 -500 Descending Cleveland Center
Sun 11:24:36 AM 41.7558 -81.9469 134° Southeast 159 183 3,200 -436 Descending Cleveland Center
Sun 11:24:53 AM 41.7436 -81.9383 152° Southeast 150 173 3,100 -200 Descending Cleveland Center
Sun 11:25:36 AM 41.7250 -81.9131 135° Southeast 153 176 3,000  Descending Cleveland Center
Sun 11:25:54 AM 41.7125 -81.9044 153° Southeast 139 160 3,100  Climbing Cleveland Center
Sun 11:26:42 AM 41.6900 -81.8761 137° Southeast 128 147 3,000 -110 Descending Cleveland Center
Sun 11:27:43 AM 41.6631 -81.8506 145° Southeast 126 145 2,900 -246 Descending Cleveland Center
Sun 11:28:44 AM 41.6322 -81.8194 143° Southeast 135 155 2,500 -393 Descending Cleveland Center
Sun 11:29:45 AM 41.5992 -81.7908 147° Southeast 140 161 2,100 -397 Descending Cleveland Center
Sun 11:30:45 AM 41.5683 -81.7600 143° Southeast 133 153 1,700 -298 Descending Cleveland Center
Sun 11:31:46 AM 41.5414 -81.7372 148° Southeast 113 130 1,500 -281 Descending Cleveland Center
Sun 11:32:53 AM 41.5167 -81.7200 152° Southeast 82 94 1,100 -358 Descending Cleveland Center
Sun 11:34:00 AM 41.5175 -81.6833 137° Southeast  Level Estimated
Sun 11:41:00 AM 41.5175 -81.6833 137° Southeast  Level Estimated
Sun 11:42:00 AM 41.5175 -81.6833 137° Southeast  Level Estimated

Login

Don't have an account? Register now (free) for customized features, flight alerts, and more!